createdAt,value
2022-08-17T00:01:22.530Z,101011.31
2022-08-17T00:05:31.312Z,101010.03
2022-08-17T00:09:33.465Z,101020.88
2022-08-17T00:13:39.140Z,101017.22
2022-08-17T00:17:42.708Z,101021.25
2022-08-17T00:22:33.214Z,101017.66
2022-08-17T00:26:10.387Z,101025.44
2022-08-17T00:30:12.825Z,101022.94
2022-08-17T00:34:14.349Z,101021.34
2022-08-17T00:38:15.953Z,101010.75
2022-08-17T00:42:18.910Z,101014.53
2022-08-17T00:46:28.367Z,101016.91
2022-08-17T00:50:29.866Z,101018.56
2022-08-17T00:54:41.838Z,101020.47
2022-08-17T00:58:44.268Z,101017.41
2022-08-17T01:02:47.923Z,101017.22
2022-08-17T01:06:50.620Z,101013.88
2022-08-17T01:10:58.954Z,101020.69
2022-08-17T01:15:05.230Z,101021.47
2022-08-17T01:19:14.236Z,101037.44
2022-08-17T01:23:18.589Z,101038.56
2022-08-17T01:27:23.226Z,101040.44
2022-08-17T01:31:30.811Z,101044.06
2022-08-17T01:35:32.292Z,101041.63
2022-08-17T01:39:38.106Z,101032.78
2022-08-17T01:43:45.725Z,101039.31
2022-08-17T01:47:47.177Z,101036.50
2022-08-17T01:51:48.913Z,101038.47
2022-08-17T01:55:55.409Z,101039.00
2022-08-17T01:59:56.869Z,101045.28
2022-08-17T02:04:00.742Z,101042.00
2022-08-17T02:08:04.092Z,101046.16
2022-08-17T02:12:37.603Z,101041.22
2022-08-17T02:16:29.460Z,101035.56
2022-08-17T02:20:42.395Z,101034.53
2022-08-17T02:25:00.929Z,101033.34
2022-08-17T02:29:04.277Z,101032.03
2022-08-17T02:33:09.409Z,101034.41
2022-08-17T02:37:11.036Z,101034.66
2022-08-17T02:41:13.273Z,101042.09
2022-08-17T02:45:22.828Z,101040.53
2022-08-17T02:49:24.312Z,101029.28
2022-08-17T02:53:26.061Z,101030.84
2022-08-17T02:57:27.587Z,101033.69
2022-08-17T03:01:29.146Z,101040.69
2022-08-17T03:05:32.968Z,101036.81
2022-08-17T03:09:34.447Z,101042.06
2022-08-17T03:13:35.995Z,101032.91
2022-08-17T03:17:37.565Z,101036.16
2022-08-17T03:21:39.089Z,101032.59
2022-08-17T03:25:43.492Z,101027.78
2022-08-17T03:29:45.751Z,101036.75
2022-08-17T03:33:47.625Z,101042.69
2022-08-17T03:38:00.000Z,101038.69
2022-08-17T03:42:09.025Z,101039.94
2022-08-17T03:46:48.926Z,101031.91
2022-08-17T03:51:14.532Z,101033.25
2022-08-17T03:55:35.945Z,101031.56
2022-08-17T03:59:38.757Z,101037.06
2022-08-17T04:03:40.701Z,101030.06
2022-08-17T04:07:42.192Z,101036.19
2022-08-17T04:11:43.737Z,101039.47
2022-08-17T04:15:49.003Z,101038.41
2022-08-17T04:19:50.506Z,101039.50
2022-08-17T04:23:52.328Z,101042.97
2022-08-17T04:27:54.685Z,101048.25
2022-08-17T04:31:56.137Z,101051.09
2022-08-17T04:36:02.662Z,101052.53
2022-08-17T04:40:27.135Z,101060.03
2022-08-17T04:44:37.457Z,101066.84
2022-08-17T04:48:42.836Z,101078.19
2022-08-17T04:52:47.158Z,101079.56
2022-08-17T04:56:49.623Z,101074.56
2022-08-17T05:00:51.462Z,101077.81
2022-08-17T05:04:53.112Z,101084.53
2022-08-17T05:08:59.056Z,101088.50
2022-08-17T05:13:10.036Z,101088.66
2022-08-17T05:17:11.978Z,101093.00
2022-08-17T05:21:14.188Z,101094.63
2022-08-17T05:25:18.848Z,101100.09
2022-08-17T05:29:35.222Z,101110.13
2022-08-17T05:33:44.394Z,101113.56
2022-08-17T05:37:47.751Z,101112.91
2022-08-17T05:41:49.258Z,101108.59
2022-08-17T05:46:06.219Z,101115.53
2022-08-17T05:50:09.823Z,101123.50
2022-08-17T05:54:24.719Z,101119.28
2022-08-17T05:58:42.002Z,101118.44
2022-08-17T06:02:58.184Z,101120.22
2022-08-17T06:07:14.485Z,101127.16
2022-08-17T06:11:35.268Z,101120.53
2022-08-17T06:15:50.457Z,101133.69
2022-08-17T06:20:00.208Z,101138.75
2022-08-17T06:24:22.647Z,101130.56
2022-08-17T06:28:37.537Z,101143.28
2022-08-17T06:32:42.756Z,101145.72
2022-08-17T06:37:09.215Z,101149.06
2022-08-17T06:41:38.094Z,101152.59
2022-08-17T06:45:49.326Z,101147.97
2022-08-17T06:50:02.919Z,101159.50
2022-08-17T06:54:50.875Z,101151.88
2022-08-17T06:58:58.565Z,101158.84
2022-08-17T07:03:09.603Z,101158.41
2022-08-17T07:07:30.860Z,101148.75
2022-08-17T07:11:37.585Z,101163.19
2022-08-17T07:15:42.934Z,101160.16
2022-08-17T07:19:47.376Z,101161.47
2022-08-17T07:24:00.793Z,101172.47
2022-08-17T07:28:07.118Z,101171.91
2022-08-17T07:32:11.033Z,101177.06
2022-08-17T07:36:30.033Z,101176.13
2022-08-17T07:40:38.547Z,101177.97
2022-08-17T07:44:53.798Z,101166.50
2022-08-17T07:48:59.270Z,101176.13
2022-08-17T07:53:19.148Z,101193.50
2022-08-17T07:57:25.399Z,101190.09
2022-08-17T08:01:39.697Z,101187.34
2022-08-17T08:05:53.149Z,101184.28
2022-08-17T08:10:11.775Z,101186.66
2022-08-17T08:14:30.056Z,101195.59
2022-08-17T08:18:54.241Z,101203.88
2022-08-17T08:23:25.906Z,101203.66
2022-08-17T08:27:43.993Z,101194.28
2022-08-17T08:31:51.381Z,101190.00
2022-08-17T08:36:06.985Z,101190.41
2022-08-17T08:40:34.508Z,101186.63
2022-08-17T08:44:59.958Z,101196.75
2022-08-17T08:50:01.270Z,101197.91
2022-08-17T08:54:05.900Z,101199.94
2022-08-17T08:58:31.466Z,101206.34
2022-08-17T09:02:54.203Z,101212.09
2022-08-17T09:07:03.084Z,101200.47
2022-08-17T09:11:30.896Z,101196.97
2022-08-17T09:15:44.944Z,101192.41
2022-08-17T09:19:53.038Z,101192.13
2022-08-17T09:24:14.057Z,101189.84
2022-08-17T09:28:36.468Z,101188.13
2022-08-17T09:32:41.610Z,101192.16
2022-08-17T09:37:02.495Z,101189.19
2022-08-17T09:41:22.432Z,101192.19
2022-08-17T09:45:31.309Z,101199.41
2022-08-17T09:49:53.143Z,101196.38
2022-08-17T09:54:05.182Z,101187.44
2022-08-17T09:58:41.280Z,101192.44
2022-08-17T10:02:54.827Z,101191.50
2022-08-17T10:07:13.749Z,101187.56
2022-08-17T10:11:24.636Z,101188.84
2022-08-17T10:15:51.706Z,101184.13
2022-08-17T10:20:23.575Z,101184.22
2022-08-17T10:25:02.104Z,101194.69
2022-08-17T10:29:20.086Z,101182.19
2022-08-17T10:33:27.914Z,101190.84
2022-08-17T10:37:37.079Z,101182.94
2022-08-17T10:41:45.095Z,101175.50
2022-08-17T10:46:10.624Z,101182.19
2022-08-17T10:50:42.551Z,101172.78
2022-08-17T10:54:50.812Z,101166.97
2022-08-17T10:58:54.961Z,101161.97
2022-08-17T11:02:57.474Z,101170.53
2022-08-17T11:07:12.537Z,101166.25
2022-08-17T11:11:36.068Z,101170.84
2022-08-17T11:15:52.072Z,101174.66
2022-08-17T11:20:34.698Z,101163.88
2022-08-17T11:24:40.401Z,101169.69
2022-08-17T11:28:52.900Z,101175.94
2022-08-17T11:32:56.328Z,101175.53
2022-08-17T11:37:02.000Z,101178.97
2022-08-17T11:41:38.631Z,101185.22
2022-08-17T11:45:52.496Z,101176.19
2022-08-17T11:50:20.898Z,101173.63
2022-08-17T11:54:33.274Z,101176.22
2022-08-17T11:58:40.992Z,101166.81
2022-08-17T12:02:48.200Z,101168.88
2022-08-17T12:07:13.120Z,101165.06
2022-08-17T12:11:55.601Z,101166.78
2022-08-17T12:15:57.826Z,101167.44
2022-08-17T12:20:26.097Z,101159.34
2022-08-17T12:24:47.885Z,101148.16
2022-08-17T12:28:57.383Z,101144.25
2022-08-17T12:33:01.427Z,101135.28
2022-08-17T12:37:15.105Z,101142.69
2022-08-17T12:41:38.401Z,101136.25
2022-08-17T12:45:39.970Z,101135.31
2022-08-17T12:49:42.880Z,101127.66
2022-08-17T12:53:52.832Z,101142.78
2022-08-17T12:57:58.410Z,101131.72
2022-08-17T13:02:02.549Z,101135.16
2022-08-17T13:06:09.511Z,101131.19
2022-08-17T13:10:32.861Z,101135.53
2022-08-17T13:14:35.269Z,101132.28
2022-08-17T13:18:38.841Z,101134.47
2022-08-17T13:22:40.755Z,101126.47
2022-08-17T13:26:57.487Z,101130.66
2022-08-17T13:31:33.565Z,101130.91
2022-08-17T13:35:50.123Z,101128.63
2022-08-17T13:40:03.972Z,101138.56
2022-08-17T13:44:32.169Z,101134.19
2022-08-17T13:48:33.940Z,101128.63
2022-08-17T13:52:38.901Z,101123.06
2022-08-17T13:56:54.611Z,101123.31
2022-08-17T14:00:56.460Z,101116.09
2022-08-17T14:04:58.527Z,101120.56
2022-08-17T14:09:04.780Z,101121.91
2022-08-17T14:13:07.494Z,101122.38
2022-08-17T14:17:10.244Z,101117.75
2022-08-17T14:21:12.139Z,101122.78
2022-08-17T14:25:18.618Z,101110.69
2022-08-17T14:29:22.521Z,101116.63
2022-08-17T14:33:24.705Z,101117.31
2022-08-17T14:37:28.832Z,101114.34
2022-08-17T14:41:30.460Z,101106.53
2022-08-17T14:45:33.526Z,101107.75
2022-08-17T14:49:35.166Z,101094.56
2022-08-17T14:53:36.645Z,101096.88
2022-08-17T14:57:39.861Z,101099.16
2022-08-17T15:01:41.420Z,101090.81
2022-08-17T15:05:45.397Z,101088.25
2022-08-17T15:09:47.097Z,101089.53
2022-08-17T15:13:52.333Z,101098.22
2022-08-17T15:17:54.840Z,101094.41
2022-08-17T15:21:56.388Z,101096.00
2022-08-17T15:25:57.853Z,101101.50
2022-08-17T15:29:59.304Z,101107.44
2022-08-17T15:34:00.914Z,101108.59
2022-08-17T15:38:11.149Z,101108.50
2022-08-17T15:42:13.563Z,101093.97
2022-08-17T15:46:20.937Z,101097.94
2022-08-17T15:50:22.606Z,101096.25
2022-08-17T15:54:24.074Z,101093.75
2022-08-17T15:58:29.934Z,101092.50
2022-08-17T16:03:45.010Z,101097.03
2022-08-17T16:06:57.323Z,101088.28
2022-08-17T16:10:59.499Z,101084.88
2022-08-17T16:15:02.417Z,101091.63
2022-08-17T16:19:04.009Z,101079.56
2022-08-17T16:23:05.515Z,101081.97
2022-08-17T16:27:12.380Z,101078.00
2022-08-17T16:31:14.525Z,101063.69
2022-08-17T16:35:18.064Z,101068.22
2022-08-17T16:39:19.565Z,101070.38
2022-08-17T16:43:21.045Z,101075.31
2022-08-17T16:47:22.555Z,101070.38
2022-08-17T16:51:24.388Z,101070.78
2022-08-17T16:55:26.259Z,101065.88
2022-08-17T16:59:31.041Z,101065.31
2022-08-17T17:03:43.926Z,101061.94
2022-08-17T17:07:55.427Z,101074.56
2022-08-17T17:12:00.703Z,101072.41
2022-08-17T17:16:19.258Z,101075.59
2022-08-17T17:20:28.882Z,101071.91
2022-08-17T17:24:40.291Z,101077.28
2022-08-17T17:29:03.675Z,101073.97
2022-08-17T17:33:21.176Z,101071.63
2022-08-17T17:37:28.901Z,101076.56
2022-08-17T17:41:41.235Z,101086.66
2022-08-17T17:45:50.192Z,101082.75
2022-08-17T17:49:51.718Z,101091.69
2022-08-17T17:54:01.292Z,101088.09
2022-08-17T17:58:36.181Z,101088.00
2022-08-17T18:02:52.599Z,101081.81
2022-08-17T18:07:15.613Z,101088.28
2022-08-17T18:11:48.675Z,101086.22
2022-08-17T18:15:54.265Z,101087.16
2022-08-17T18:19:56.122Z,101086.38
2022-08-17T18:24:01.170Z,101094.19
2022-08-17T18:28:02.982Z,101096.94
2022-08-17T18:32:26.809Z,101100.94
2022-08-17T18:36:33.140Z,101095.28
2022-08-17T18:40:37.440Z,101096.28
2022-08-17T18:44:38.867Z,101090.69
2022-08-17T18:49:03.775Z,101104.25
2022-08-17T18:53:30.408Z,101101.97
2022-08-17T18:57:40.017Z,101106.47
2022-08-17T19:01:52.705Z,101111.81
2022-08-17T19:06:16.605Z,101109.56
2022-08-17T19:10:23.327Z,101125.56
2022-08-17T19:14:28.505Z,101130.03
2022-08-17T19:18:36.051Z,101132.09
2022-08-17T19:22:55.822Z,101127.78
2022-08-17T19:27:25.910Z,101125.28
2022-08-17T19:31:36.417Z,101126.91
2022-08-17T19:35:55.061Z,101129.50
2022-08-17T19:40:05.739Z,101126.34
2022-08-17T19:44:29.461Z,101124.63
2022-08-17T19:48:51.343Z,101126.41
2022-08-17T19:53:12.361Z,101120.22
2022-08-17T19:57:40.601Z,101128.50
2022-08-17T20:02:03.875Z,101125.00
2022-08-17T20:06:15.059Z,101106.00
2022-08-17T20:10:34.205Z,101108.25
2022-08-17T20:14:55.865Z,101116.53
2022-08-17T20:19:05.927Z,101118.19
2022-08-17T20:23:23.447Z,101121.31
2022-08-17T20:27:31.919Z,101123.06
2022-08-17T20:32:04.488Z,101118.44
2022-08-17T20:36:17.259Z,101110.84
2022-08-17T20:40:29.280Z,101105.44
2022-08-17T20:44:33.171Z,101106.19
2022-08-17T20:48:40.023Z,101107.84
2022-08-17T20:52:48.171Z,101112.19
2022-08-17T20:56:52.502Z,101111.56
2022-08-17T21:00:57.167Z,101107.66
2022-08-17T21:05:04.033Z,101113.63
2022-08-17T21:09:29.834Z,101121.47
2022-08-17T21:14:09.632Z,101118.31
2022-08-17T21:18:18.311Z,101109.19
2022-08-17T21:22:31.657Z,101104.16
2022-08-17T21:26:50.762Z,101113.75
2022-08-17T21:30:55.396Z,101111.03
2022-08-17T21:35:06.510Z,101106.72
2022-08-17T21:39:11.656Z,101105.88
2022-08-17T21:43:43.596Z,101117.41
2022-08-17T21:48:07.603Z,101113.81
2022-08-17T21:52:17.609Z,101113.63
2022-08-17T21:56:36.321Z,101115.38
2022-08-17T22:00:37.865Z,101118.53
2022-08-17T22:04:41.605Z,101127.66
2022-08-17T22:08:57.500Z,101117.03
2022-08-17T22:13:19.680Z,101120.19
2022-08-17T22:17:23.076Z,101120.63
2022-08-17T22:21:25.528Z,101120.41
2022-08-17T22:25:28.228Z,101116.88
2022-08-17T22:29:53.349Z,101103.25
2022-08-17T22:34:01.284Z,101089.31
2022-08-17T22:38:17.989Z,101082.72
2022-08-17T22:42:19.476Z,101084.50
2022-08-17T22:46:24.029Z,101087.50
2022-08-17T22:50:29.055Z,101083.72
2022-08-17T22:54:49.646Z,101083.69
2022-08-17T22:59:13.018Z,101093.19
2022-08-17T23:03:24.438Z,101081.34
2022-08-17T23:07:25.960Z,101089.91
2022-08-17T23:11:36.645Z,101086.06
2022-08-17T23:15:51.038Z,101089.25
2022-08-17T23:19:53.039Z,101077.38
2022-08-17T23:23:55.109Z,101083.31
2022-08-17T23:28:01.348Z,101084.59
2022-08-17T23:32:04.760Z,101092.22
2022-08-17T23:36:09.619Z,101093.66
2022-08-17T23:40:11.607Z,101093.47
2022-08-17T23:44:14.811Z,101090.25
2022-08-17T23:48:18.169Z,101088.50
2022-08-17T23:52:37.718Z,101083.59
2022-08-17T23:56:46.657Z,101086.84
